Time;durP1;ratioP1;P1;durP2;ratioP2;P2;SDS_P1;SDS_P2;PMS_P1;PMS_P2;Temp;Humidity;BMP_temperature;BMP_pressure;BME280_temperature;BME280_humidity;BME280_pressure;Samples;Min_cycle;Max_cycle;Signal;HPM_P1;HPM_P2
2023/04/04 00:00:13;;;;;;;6.33;3.67;;;;;;;;;;5075563;28;20682;-72
2023/04/04 00:02:39;;;;;;;9.23;3.93;;;;;;;;;;5056700;28;20217;-72
2023/04/04 00:05:06;;;;;;;6.87;3.73;;;;;;;;;;5056275;28;20598;-72
2023/04/04 00:07:32;;;;;;;11.40;3.83;;;;;;;;;;5074422;28;20182;-72
2023/04/04 00:09:58;;;;;;;9.93;3.70;;;;;;;;;;5056433;28;20670;-72
2023/04/04 00:12:24;;;;;;;9.47;3.47;;;;;;;;;;5056244;28;20192;-72
2023/04/04 00:14:50;;;;;;;8.20;4.03;;;;;;;;;;5056136;28;20210;-72
2023/04/04 00:17:16;;;;;;;13.70;3.83;;;;;;;;;;5073661;28;20868;-72
2023/04/04 00:19:42;;;;;;;7.77;3.27;;;;;;;;;;5055638;28;20174;-72
2023/04/04 00:22:08;;;;;;;11.10;3.57;;;;;;;;;;5055828;28;20185;-72
2023/04/04 00:24:34;;;;;;;9.87;3.27;;;;;;;;;;5055705;28;20202;-72
2023/04/04 00:27:00;;;;;;;7.27;3.40;;;;;;;;;;5073714;28;20177;-72
2023/04/04 00:29:27;;;;;;;11.00;3.70;;;;;;;;;;5055992;28;20184;-72
2023/04/04 00:31:52;;;;;;;7.80;3.83;;;;;;;;;;5056107;28;20416;-72
2023/04/04 00:34:18;;;;;;;7.10;3.90;;;;;;;;;;5073372;28;20737;-72
2023/04/04 00:36:45;;;;;;;10.33;4.60;;;;;;;;;;5073910;28;20231;-72
2023/04/04 00:39:11;;;;;;;8.93;4.13;;;;;;;;;;5055414;28;20265;-72
2023/04/04 00:41:37;;;;;;;10.53;4.47;;;;;;;;;;5073844;28;20666;-72
2023/04/04 00:44:03;;;;;;;9.70;4.30;;;;;;;;;;5074005;28;20507;-72
2023/04/04 00:46:29;;;;;;;7.03;3.80;;;;;;;;;;5073602;28;20624;-72
2023/04/04 00:48:55;;;;;;;7.87;4.13;;;;;;;;;;5073417;28;20257;-72
2023/04/04 00:51:21;;;;;;;6.97;3.70;;;;;;;;;;5074088;28;20182;-72
2023/04/04 00:53:47;;;;;;;10.33;4.37;;;;;;;;;;5074512;28;20202;-72
2023/04/04 00:56:14;;;;;;;9.03;4.10;;;;;;;;;;5056033;28;20174;-72
2023/04/04 00:58:40;;;;;;;6.63;3.80;;;;;;;;;;5055689;28;20178;-72
2023/04/04 01:01:07;;;;;;;10.43;4.77;;;;;;;;;;5073619;28;20177;-72
2023/04/04 01:03:34;;;;;;;10.77;4.80;;;;;;;;;;5073226;28;20864;-72
2023/04/04 01:06:01;;;;;;;9.43;4.80;;;;;;;;;;5073298;28;20408;-72
2023/04/04 01:08:27;;;;;;;10.03;4.80;;;;;;;;;;5055419;28;20413;-72
2023/04/04 01:10:53;;;;;;;8.67;4.63;;;;;;;;;;5055310;28;20408;-72
2023/04/04 01:13:20;;;;;;;13.67;4.70;;;;;;;;;;5075811;28;20285;-72
2023/04/04 01:15:46;;;;;;;10.43;5.87;;;;;;;;;;5058914;28;20745;-72
2023/04/04 01:18:13;;;;;;;9.83;4.77;;;;;;;;;;5076924;28;20408;-72
2023/04/04 01:20:44;;;;;;;9.43;4.63;;;;;;;;;;5058823;28;20178;-72
2023/04/04 01:23:10;;;;;;;11.37;5.60;;;;;;;;;;5059404;28;20617;-72
2023/04/04 01:25:36;;;;;;;10.73;4.73;;;;;;;;;;5058871;28;20188;-72
2023/04/04 01:28:02;;;;;;;9.27;5.07;;;;;;;;;;5076785;28;20253;-72
2023/04/04 01:30:30;;;;;;;8.90;5.07;;;;;;;;;;5076913;28;20196;-72
2023/04/04 01:33:00;;;;;;;12.23;4.70;;;;;;;;;;5076722;28;20772;-72
2023/04/04 01:35:36;;;;;;;9.17;5.27;;;;;;;;;;5076483;28;20202;-72
2023/04/04 01:38:23;;;;;;;9.97;5.07;;;;;;;;;;5059325;28;20166;-72
2023/04/04 01:40:50;;;;;;;11.70;5.50;;;;;;;;;;5058397;28;20227;-73
2023/04/04 01:43:17;;;;;;;7.17;5.10;;;;;;;;;;5076182;28;20436;-72
2023/04/04 01:45:43;;;;;;;9.10;5.03;;;;;;;;;;5058480;28;20190;-72
2023/04/04 01:48:10;;;;;;;9.83;4.67;;;;;;;;;;5058216;28;20420;-72
2023/04/04 01:50:36;;;;;;;9.00;5.17;;;;;;;;;;5058216;28;20216;-72
2023/04/04 01:53:02;;;;;;;7.30;4.60;;;;;;;;;;5075999;28;20202;-72
2023/04/04 01:55:28;;;;;;;9.07;4.97;;;;;;;;;;5076140;28;20213;-72
2023/04/04 01:57:54;;;;;;;11.13;4.97;;;;;;;;;;5058230;28;20181;-72
2023/04/04 02:00:20;;;;;;;8.67;4.93;;;;;;;;;;5076150;28;20577;-72
2023/04/04 02:02:46;;;;;;;8.23;4.63;;;;;;;;;;5076186;28;20197;-72
2023/04/04 02:05:12;;;;;;;11.90;4.67;;;;;;;;;;5057840;28;20549;-72
2023/04/04 02:07:38;;;;;;;8.43;5.30;;;;;;;;;;5057737;28;20186;-72
2023/04/04 02:10:05;;;;;;;11.70;5.30;;;;;;;;;;5057902;28;20231;-72
2023/04/04 02:12:30;;;;;;;9.47;5.10;;;;;;;;;;5057640;28;20612;-72
2023/04/04 02:14:56;;;;;;;11.50;4.83;;;;;;;;;;5075671;28;20197;-72
2023/04/04 02:17:22;;;;;;;7.97;4.87;;;;;;;;;;5075576;28;20174;-72
2023/04/04 02:19:48;;;;;;;13.70;5.27;;;;;;;;;;5075598;28;20181;-73
2023/04/04 02:22:15;;;;;;;8.87;5.20;;;;;;;;;;5075576;28;20170;-73
2023/04/04 02:24:41;;;;;;;9.27;4.80;;;;;;;;;;5075165;28;20217;-73
2023/04/04 02:27:07;;;;;;;11.37;4.87;;;;;;;;;;5057828;28;20424;-73
2023/04/04 02:29:33;;;;;;;9.80;4.80;;;;;;;;;;5075723;28;20170;-73
2023/04/04 02:31:59;;;;;;;8.97;4.87;;;;;;;;;;5075246;28;20268;-73
2023/04/04 02:34:25;;;;;;;7.97;4.30;;;;;;;;;;5075583;28;20217;-72
2023/04/04 02:36:51;;;;;;;8.87;5.30;;;;;;;;;;5057634;28;20625;-72
2023/04/04 02:39:17;;;;;;;9.67;5.20;;;;;;;;;;5075986;28;20178;-73
2023/04/04 02:41:43;;;;;;;13.20;4.90;;;;;;;;;;5059279;28;20184;-73
2023/04/04 02:44:09;;;;;;;10.97;5.60;;;;;;;;;;5083463;28;20705;-72
2023/04/04 02:46:35;;;;;;;10.93;5.50;;;;;;;;;;5070655;28;20186;-73
2023/04/04 02:49:02;;;;;;;9.23;4.93;;;;;;;;;;5081920;28;20185;-73
2023/04/04 02:51:28;;;;;;;7.73;4.63;;;;;;;;;;5076467;28;20174;-72
2023/04/04 02:53:54;;;;;;;9.80;5.53;;;;;;;;;;5058011;28;20436;-72
2023/04/04 02:56:20;;;;;;;12.47;5.37;;;;;;;;;;5075600;28;20412;-73
2023/04/04 02:58:47;;;;;;;11.17;5.37;;;;;;;;;;5075019;28;20400;-73
2023/04/04 03:01:13;;;;;;;10.03;5.07;;;;;;;;;;5075129;28;20408;-72
2023/04/04 03:03:39;;;;;;;11.70;5.50;;;;;;;;;;5074542;28;20444;-73
2023/04/04 03:06:05;;;;;;;7.13;4.73;;;;;;;;;;5075332;28;20690;-73
2023/04/04 03:08:31;;;;;;;9.00;4.87;;;;;;;;;;5056802;28;20193;-72
2023/04/04 03:10:57;;;;;;;8.57;4.90;;;;;;;;;;5056752;28;20205;-73
2023/04/04 03:13:23;;;;;;;9.07;4.97;;;;;;;;;;5074420;28;20200;-73
2023/04/04 03:15:49;;;;;;;10.40;5.50;;;;;;;;;;5056624;28;20213;-73
2023/04/04 03:18:15;;;;;;;12.53;4.73;;;;;;;;;;5074873;28;20858;-72
2023/04/04 03:20:41;;;;;;;11.10;5.27;;;;;;;;;;5056596;28;20408;-73
2023/04/04 03:23:07;;;;;;;8.50;4.83;;;;;;;;;;5056657;28;20812;-72
2023/04/04 03:25:33;;;;;;;22.17;5.30;;;;;;;;;;5056954;28;20185;-73
2023/04/04 03:28:07;;;;;;;13.33;5.90;;;;;;;;;;5075649;28;20652;-72
2023/04/04 03:30:33;;;;;;;11.93;5.30;;;;;;;;;;5075676;28;20188;-73
2023/04/04 03:32:59;;;;;;;10.00;5.27;;;;;;;;;;5075589;28;20933;-72
2023/04/04 03:35:25;;;;;;;12.77;5.50;;;;;;;;;;5056562;28;20578;-73
2023/04/04 03:37:53;;;;;;;7.90;5.43;;;;;;;;;;5056576;28;20177;-73
2023/04/04 03:40:19;;;;;;;11.27;5.47;;;;;;;;;;5075074;28;20837;-73
2023/04/04 03:42:45;;;;;;;16.20;5.47;;;;;;;;;;5056319;28;20463;-73
2023/04/04 03:45:11;;;;;;;9.77;6.30;;;;;;;;;;5074186;28;20269;-73
2023/04/04 03:47:38;;;;;;;9.57;5.47;;;;;;;;;;5056309;28;20455;-71
2023/04/04 03:50:04;;;;;;;9.30;5.60;;;;;;;;;;5074831;28;20227;-72
2023/04/04 03:52:30;;;;;;;10.27;5.97;;;;;;;;;;5074153;28;20436;-73
2023/04/04 03:54:56;;;;;;;10.40;6.30;;;;;;;;;;5074157;28;20284;-72
2023/04/04 03:57:22;;;;;;;13.40;6.37;;;;;;;;;;5055957;28;20983;-73
2023/04/04 03:59:48;;;;;;;9.10;5.83;;;;;;;;;;5073853;28;20671;-73
2023/04/04 04:02:14;;;;;;;13.93;6.70;;;;;;;;;;5055819;28;20656;-73
2023/04/04 04:04:40;;;;;;;9.83;6.20;;;;;;;;;;5073665;28;20752;-72
2023/04/04 04:07:06;;;;;;;10.80;6.23;;;;;;;;;;5073788;28;20488;-73
2023/04/04 04:09:32;;;;;;;9.30;6.00;;;;;;;;;;5055855;28;20200;-73
2023/04/04 04:11:58;;;;;;;12.97;6.13;;;;;;;;;;5082231;22;20236;-68
2023/04/04 04:14:24;;;;;;;12.93;5.97;;;;;;;;;;5073542;28;20206;-68
2023/04/04 04:16:50;;;;;;;10.83;5.93;;;;;;;;;;5073837;28;20225;-68
2023/04/04 04:19:16;;;;;;;10.40;5.13;;;;;;;;;;5072293;28;20412;-68
2023/04/04 04:21:42;;;;;;;12.73;5.63;;;;;;;;;;5073568;28;20207;-68
2023/04/04 04:24:09;;;;;;;11.83;5.70;;;;;;;;;;5073617;28;20181;-68
2023/04/04 04:26:35;;;;;;;10.47;6.03;;;;;;;;;;5073610;28;20454;-67
2023/04/04 04:29:01;;;;;;;10.97;6.27;;;;;;;;;;5073685;28;20412;-68
2023/04/04 04:31:27;;;;;;;12.53;6.23;;;;;;;;;;5072658;28;20258;-68
2023/04/04 04:33:53;;;;;;;9.37;6.13;;;;;;;;;;5073561;28;20416;-68
2023/04/04 04:36:19;;;;;;;13.33;7.13;;;;;;;;;;5072287;28;20173;-68
2023/04/04 04:38:45;;;;;;;15.13;7.50;;;;;;;;;;5073692;28;20651;-69
2023/04/04 04:41:11;;;;;;;12.97;7.37;;;;;;;;;;5072288;28;20427;-70
2023/04/04 04:43:37;;;;;;;11.37;6.43;;;;;;;;;;5072094;28;20181;-68
2023/04/04 04:46:03;;;;;;;10.77;6.87;;;;;;;;;;5073433;28;20188;-68
2023/04/04 04:48:29;;;;;;;9.77;6.60;;;;;;;;;;5077876;28;20494;-69
2023/04/04 04:50:55;;;;;;;12.57;6.77;;;;;;;;;;5076166;28;20181;-68
2023/04/04 04:53:21;;;;;;;16.10;7.33;;;;;;;;;;5077305;28;20205;-67
2023/04/04 04:55:47;;;;;;;10.47;6.50;;;;;;;;;;5077079;28;20485;-68
2023/04/04 04:58:15;;;;;;;13.20;6.77;;;;;;;;;;5077606;28;20206;-67
2023/04/04 05:00:41;;;;;;;16.43;6.53;;;;;;;;;;5075914;28;20174;-68
2023/04/04 05:03:07;;;;;;;10.33;6.70;;;;;;;;;;5076947;28;20492;-68
2023/04/04 05:05:34;;;;;;;11.07;6.90;;;;;;;;;;5075727;28;20926;-68
2023/04/04 05:08:03;;;;;;;8.63;5.57;;;;;;;;;;5075896;28;20197;-69
2023/04/04 05:10:30;;;;;;;13.97;6.50;;;;;;;;;;5075573;28;20422;-68
2023/04/04 05:12:56;;;;;;;12.80;6.50;;;;;;;;;;5075467;28;20543;-68
2023/04/04 05:15:22;;;;;;;11.53;6.43;;;;;;;;;;5075604;28;21042;-67
2023/04/04 05:17:48;;;;;;;15.30;6.30;;;;;;;;;;5077293;28;20174;-67
2023/04/04 05:20:14;;;;;;;16.90;5.93;;;;;;;;;;5075662;28;20423;-69
2023/04/04 05:22:44;;;;;;;13.17;6.47;;;;;;;;;;5076856;28;20190;-67
2023/04/04 05:25:11;;;;;;;9.20;5.83;;;;;;;;;;5076876;28;20185;-68
2023/04/04 05:27:37;;;;;;;13.97;6.37;;;;;;;;;;5075448;28;20428;-69
2023/04/04 05:30:03;;;;;;;13.13;6.50;;;;;;;;;;5076909;28;20416;-67
2023/04/04 05:32:29;;;;;;;16.03;6.43;;;;;;;;;;5076760;28;20436;-68
2023/04/04 05:34:55;;;;;;;13.47;6.30;;;;;;;;;;5075304;28;20558;-67
2023/04/04 05:37:21;;;;;;;13.37;6.83;;;;;;;;;;5076537;28;20177;-67
2023/04/04 05:39:47;;;;;;;17.40;6.93;;;;;;;;;;5076417;28;20200;-67
2023/04/04 05:42:13;;;;;;;12.53;6.20;;;;;;;;;;5075043;28;20626;-68
2023/04/04 05:44:39;;;;;;;18.30;7.47;;;;;;;;;;5076686;28;20898;-67
2023/04/04 05:47:05;;;;;;;9.97;6.20;;;;;;;;;;5077133;28;20465;-67
2023/04/04 05:49:31;;;;;;;12.40;6.93;;;;;;;;;;5076632;28;20186;-67
2023/04/04 05:51:57;;;;;;;14.97;6.13;;;;;;;;;;5077415;28;20567;-67
2023/04/04 05:54:23;;;;;;;16.20;6.93;;;;;;;;;;5076908;28;20277;-68
2023/04/04 05:56:49;;;;;;;14.23;6.43;;;;;;;;;;5077065;28;20206;-68
2023/04/04 05:59:15;;;;;;;19.13;6.60;;;;;;;;;;5075992;28;20178;-68
2023/04/04 06:01:41;;;;;;;20.57;6.43;;;;;;;;;;5077068;28;20194;-68
2023/04/04 06:04:07;;;;;;;16.90;6.43;;;;;;;;;;5076133;28;20192;-67
2023/04/04 06:06:34;;;;;;;12.57;6.60;;;;;;;;;;5080963;28;20178;-63
2023/04/04 06:09:00;;;;;;;14.83;6.33;;;;;;;;;;5077138;28;20212;-64
2023/04/04 06:11:26;;;;;;;10.30;5.67;;;;;;;;;;5074991;28;20296;-64
2023/04/04 06:13:53;;;;;;;11.70;5.43;;;;;;;;;;5075375;28;20242;-65
2023/04/04 06:16:20;;;;;;;11.83;5.60;;;;;;;;;;5076746;28;20197;-64
2023/04/04 06:18:46;;;;;;;11.57;6.00;;;;;;;;;;5076237;28;20533;-64
2023/04/04 06:21:12;;;;;;;8.67;5.53;;;;;;;;;;5076429;28;20186;-64
2023/04/04 06:23:38;;;;;;;15.27;5.80;;;;;;;;;;5076928;28;20166;-63
2023/04/04 06:26:05;;;;;;;10.50;5.43;;;;;;;;;;5076438;28;20643;-64
2023/04/04 06:28:31;;;;;;;21.50;6.30;;;;;;;;;;5075033;28;20181;-63
2023/04/04 06:30:57;;;;;;;13.03;5.90;;;;;;;;;;5076096;28;20177;-63
2023/04/04 06:33:23;;;;;;;14.50;5.93;;;;;;;;;;5074976;28;20292;-64
2023/04/04 06:35:49;;;;;;;13.37;5.83;;;;;;;;;;5076898;28;20232;-63
2023/04/04 06:38:15;;;;;;;11.10;6.20;;;;;;;;;;5075136;28;20186;-63
2023/04/04 06:40:41;;;;;;;17.10;7.17;;;;;;;;;;5076072;28;20227;-64
2023/04/04 06:43:08;;;;;;;16.23;6.43;;;;;;;;;;5076803;28;20194;-67
2023/04/04 06:45:35;;;;;;;17.07;5.80;;;;;;;;;;5085349;28;20170;-69
2023/04/04 06:48:01;;;;;;;22.23;6.17;;;;;;;;;;5076651;28;20245;-67
2023/04/04 06:50:31;;;;;;;8.10;5.27;;;;;;;;;;5074887;28;20541;-67
2023/04/04 06:52:57;;;;;;;17.53;5.13;;;;;;;;;;5074888;28;20201;-67
2023/04/04 06:55:23;;;;;;;17.30;5.80;;;;;;;;;;5076293;28;20198;-67
2023/04/04 06:57:49;;;;;;;9.00;5.20;;;;;;;;;;5076374;28;20181;-67
2023/04/04 07:00:15;;;;;;;8.50;5.53;;;;;;;;;;5076119;28;20178;-66
2023/04/04 07:02:41;;;;;;;14.77;6.13;;;;;;;;;;5074656;28;20225;-66
2023/04/04 07:05:07;;;;;;;26.20;6.93;;;;;;;;;;5076458;28;20231;-65
2023/04/04 07:07:33;;;;;;;13.37;5.53;;;;;;;;;;5075921;28;20178;-65
2023/04/04 07:10:00;;;;;;;15.50;5.13;;;;;;;;;;5075409;28;20181;-66
2023/04/04 07:12:25;;;;;;;9.80;4.23;;;;;;;;;;5076035;28;20717;-66
2023/04/04 07:14:52;;;;;;;11.43;4.83;;;;;;;;;;5076246;28;20201;-68
2023/04/04 07:17:18;;;;;;;10.63;4.40;;;;;;;;;;5076107;28;20170;-67
2023/04/04 07:19:44;;;;;;;7.67;3.87;;;;;;;;;;5075388;28;20254;-67
2023/04/04 07:22:10;;;;;;;7.33;4.60;;;;;;;;;;5074332;28;20690;-68
2023/04/04 07:24:36;;;;;;;11.70;4.57;;;;;;;;;;5075842;28;20655;-66
2023/04/04 07:27:02;;;;;;;9.47;4.57;;;;;;;;;;5075477;28;20306;-66
2023/04/04 07:29:28;;;;;;;9.93;4.10;;;;;;;;;;5075689;28;20209;-66
2023/04/04 07:32:02;;;;;;;12.37;4.33;;;;;;;;;;5072689;28;20617;-66
2023/04/04 07:34:28;;;;;;;5.97;3.77;;;;;;;;;;5072693;28;20166;-66
2023/04/04 07:36:54;;;;;;;8.83;4.27;;;;;;;;;;5071311;28;20174;-66
2023/04/04 07:39:21;;;;;;;9.73;4.50;;;;;;;;;;5072235;28;20166;-66
2023/04/04 07:41:47;;;;;;;4.93;3.07;;;;;;;;;;5072141;28;20277;-69
2023/04/04 07:44:13;;;;;;;8.73;4.00;;;;;;;;;;5072845;28;20202;-66
2023/04/04 07:46:39;;;;;;;10.13;5.53;;;;;;;;;;5071876;28;20205;-67
2023/04/04 07:49:06;;;;;;;12.20;5.33;;;;;;;;;;5072663;28;20185;-66
2023/04/04 07:51:34;;;;;;;13.60;4.30;;;;;;;;;;5072028;28;20205;-66
2023/04/04 07:54:01;;;;;;;7.93;3.57;;;;;;;;;;5072470;28;20166;-67
2023/04/04 07:56:27;;;;;;;6.37;2.40;;;;;;;;;;5072724;28;20170;-67
2023/04/04 07:58:53;;;;;;;7.03;3.23;;;;;;;;;;5072539;28;20174;-65
2023/04/04 08:01:19;;;;;;;8.23;3.50;;;;;;;;;;5070869;28;20180;-66
2023/04/04 08:03:45;;;;;;;11.17;4.57;;;;;;;;;;5071955;28;20559;-67
2023/04/04 08:06:12;;;;;;;9.33;4.40;;;;;;;;;;5072578;28;20664;-65
2023/04/04 08:08:38;;;;;;;9.03;3.53;;;;;;;;;;5072657;28;20209;-67
2023/04/04 08:11:04;;;;;;;7.83;3.50;;;;;;;;;;5072019;28;20256;-70
2023/04/04 08:13:30;;;;;;;4.27;2.30;;;;;;;;;;5071201;28;20643;-67
2023/04/04 08:15:56;;;;;;;7.73;2.70;;;;;;;;;;5072497;28;20192;-66
2023/04/04 08:18:22;;;;;;;6.57;2.70;;;;;;;;;;5071988;28;20653;-68
2023/04/04 08:20:48;;;;;;;11.03;3.37;;;;;;;;;;5072122;28;20174;-67
2023/04/04 08:23:14;;;;;;;7.03;3.13;;;;;;;;;;5071063;28;20293;-67
2023/04/04 08:25:42;;;;;;;13.03;3.03;;;;;;;;;;5073529;28;20178;-68
2023/04/04 08:28:08;;;;;;;7.97;3.37;;;;;;;;;;5072926;28;20573;-65
2023/04/04 08:30:34;;;;;;;7.53;3.00;;;;;;;;;;5072119;28;20209;-67
2023/04/04 08:33:01;;;;;;;7.23;3.50;;;;;;;;;;5071927;28;20798;-66
2023/04/04 08:35:26;;;;;;;7.53;3.70;;;;;;;;;;5071048;28;20690;-67
2023/04/04 08:37:52;;;;;;;4.37;3.07;;;;;;;;;;5072198;28;20174;-67
2023/04/04 08:40:18;;;;;;;5.77;3.53;;;;;;;;;;5072033;28;20676;-67
2023/04/04 08:42:45;;;;;;;7.10;2.90;;;;;;;;;;5061071;28;20656;-66
2023/04/04 08:45:12;;;;;;;6.97;3.10;;;;;;;;;;5058484;28;20175;-68
2023/04/04 08:47:39;;;;;;;4.93;3.03;;;;;;;;;;5058998;28;20201;-68
2023/04/04 08:50:06;;;;;;;5.13;2.70;;;;;;;;;;5058332;28;20318;-68
2023/04/04 08:52:33;;;;;;;7.27;3.03;;;;;;;;;;5058557;28;20241;-66
2023/04/04 08:55:00;;;;;;;6.13;2.97;;;;;;;;;;5057983;28;20182;-68
2023/04/04 08:57:26;;;;;;;8.23;3.23;;;;;;;;;;5058438;28;20175;-67
2023/04/04 08:59:52;;;;;;;10.03;2.30;;;;;;;;;;5056864;28;20178;-68
2023/04/04 09:02:28;;;;;;;4.43;2.90;;;;;;;;;;5057678;28;20194;-68
2023/04/04 09:04:54;;;;;;;5.53;2.50;;;;;;;;;;5057938;28;20227;-67
2023/04/04 09:07:21;;;;;;;6.07;2.60;;;;;;;;;;5057802;28;20174;-68
2023/04/04 09:09:47;;;;;;;3.57;2.50;;;;;;;;;;5056283;28;20645;-68
2023/04/04 09:12:14;;;;;;;3.47;2.40;;;;;;;;;;5057784;28;20209;-67
2023/04/04 09:14:42;;;;;;;8.47;2.50;;;;;;;;;;5058097;28;20644;-66
2023/04/04 09:17:09;;;;;;;7.27;2.90;;;;;;;;;;5058341;28;20201;-67
2023/04/04 09:19:36;;;;;;;5.03;2.90;;;;;;;;;;5056677;28;20317;-67
2023/04/04 09:22:02;;;;;;;10.00;3.67;;;;;;;;;;5057504;28;20213;-67
2023/04/04 09:24:41;;;;;;;3.97;2.70;;;;;;;;;;5057575;28;20652;-66
2023/04/04 09:27:09;;;;;;;6.70;3.13;;;;;;;;;;5057437;28;20183;-66
2023/04/04 09:29:35;;;;;;;5.73;2.63;;;;;;;;;;5056784;28;20181;-67
2023/04/04 09:32:01;;;;;;;5.10;3.00;;;;;;;;;;5056928;28;20294;-65
2023/04/04 09:34:29;;;;;;;5.30;2.83;;;;;;;;;;5057590;28;20190;-67
2023/04/04 09:36:55;;;;;;;5.87;2.70;;;;;;;;;;5057893;28;20240;-66
2023/04/04 09:39:22;;;;;;;3.63;2.40;;;;;;;;;;5056377;28;20182;-67
2023/04/04 09:41:49;;;;;;;5.37;2.90;;;;;;;;;;5057255;28;20198;-66
2023/04/04 09:44:15;;;;;;;5.60;2.70;;;;;;;;;;5057573;28;20228;-66
2023/04/04 09:46:42;;;;;;;4.33;2.47;;;;;;;;;;5058184;28;20589;-67
2023/04/04 09:49:11;;;;;;;4.10;2.83;;;;;;;;;;5057271;28;20175;-68
2023/04/04 09:51:38;;;;;;;5.03;2.70;;;;;;;;;;5057442;28;20221;-67
2023/04/04 09:54:05;;;;;;;4.03;2.73;;;;;;;;;;5056206;28;20524;-65
2023/04/04 09:56:35;;;;;;;3.73;2.33;;;;;;;;;;5057049;28;20551;-66
2023/04/04 09:59:01;;;;;;;6.07;2.93;;;;;;;;;;5057287;28;20177;-66
2023/04/04 10:01:28;;;;;;;4.10;2.67;;;;;;;;;;5057385;28;20289;-67
2023/04/04 10:03:54;;;;;;;4.43;2.60;;;;;;;;;;5057579;28;20178;-67
2023/04/04 10:06:21;;;;;;;4.03;2.47;;;;;;;;;;5057108;28;20261;-66
2023/04/04 10:08:47;;;;;;;4.63;2.60;;;;;;;;;;5057202;28;20236;-67
2023/04/04 10:11:27;;;;;;;7.53;2.50;;;;;;;;;;5056777;28;20210;-66
2023/04/04 10:13:53;;;;;;;4.50;2.60;;;;;;;;;;5056816;28;20174;-66
2023/04/04 10:16:20;;;;;;;5.40;2.17;;;;;;;;;;5056640;28;20224;-70
2023/04/04 10:18:47;;;;;;;5.93;2.60;;;;;;;;;;5057078;28;20210;-66
2023/04/04 10:21:13;;;;;;;6.03;2.73;;;;;;;;;;5056792;28;20225;-66
2023/04/04 10:23:40;;;;;;;7.17;2.63;;;;;;;;;;5056804;28;20218;-66
2023/04/04 10:26:06;;;;;;;3.10;2.30;;;;;;;;;;5056553;28;20182;-66
2023/04/04 10:28:33;;;;;;;3.77;2.40;;;;;;;;;;5055202;28;20187;-67
2023/04/04 10:31:05;;;;;;;4.57;2.20;;;;;;;;;;5055851;28;20218;-66
2023/04/04 10:33:44;;;;;;;5.60;2.90;;;;;;;;;;5056700;28;20668;-67
2023/04/04 10:36:12;;;;;;;5.20;3.00;;;;;;;;;;5060947;28;20174;-67
2023/04/04 10:38:47;;;;;;;7.17;2.47;;;;;;;;;;5056701;28;20170;-64
2023/04/04 10:41:13;;;;;;;5.87;2.63;;;;;;;;;;5056430;28;20603;-69
2023/04/04 10:43:41;;;;;;;5.30;2.67;;;;;;;;;;5055040;28;20224;-67
2023/04/04 10:46:18;;;;;;;3.20;2.40;;;;;;;;;;5056256;28;20228;-66
2023/04/04 10:48:44;;;;;;;4.57;2.87;;;;;;;;;;5056458;28;20192;-66
2023/04/04 10:51:11;;;;;;;9.40;3.00;;;;;;;;;;5056499;28;20197;-67
2023/04/04 10:53:38;;;;;;;3.70;2.63;;;;;;;;;;5054226;28;20231;-67
2023/04/04 10:56:04;;;;;;;7.67;2.93;;;;;;;;;;5055115;28;20195;-67
2023/04/04 10:58:30;;;;;;;6.30;3.07;;;;;;;;;;5054584;28;20178;-67
2023/04/04 11:00:56;;;;;;;6.40;3.03;;;;;;;;;;5055665;28;20182;-66
2023/04/04 11:03:24;;;;;;;3.67;2.47;;;;;;;;;;5056014;28;20205;-67
2023/04/04 11:05:50;;;;;;;6.13;3.30;;;;;;;;;;5055157;28;20244;-68
2023/04/04 11:08:16;;;;;;;4.30;2.83;;;;;;;;;;5053899;28;20190;-67
2023/04/04 11:10:47;;;;;;;6.80;2.83;;;;;;;;;;5054402;28;20225;-69
2023/04/04 11:13:17;;;;;;;9.27;2.83;;;;;;;;;;5055248;28;20206;-68
2023/04/04 11:15:59;;;;;;;6.07;2.73;;;;;;;;;;5055386;28;20236;-66
2023/04/04 11:18:31;;;;;;;2.97;2.03;;;;;;;;;;5054322;28;20185;-68
2023/04/04 11:20:57;;;;;;;4.33;2.37;;;;;;;;;;5055341;28;20191;-67
2023/04/04 11:23:25;;;;;;;6.17;2.90;;;;;;;;;;5053316;28;20320;-67
2023/04/04 11:25:55;;;;;;;4.23;2.50;;;;;;;;;;5054634;28;20186;-67
2023/04/04 11:28:24;;;;;;;5.60;2.60;;;;;;;;;;5056023;28;20213;-67
2023/04/04 11:31:10;;;;;;;9.03;2.80;;;;;;;;;;5055247;28;20309;-67
2023/04/04 11:33:54;;;;;;;4.63;2.53;;;;;;;;;;5055185;28;20206;-67
2023/04/04 11:36:44;;;;;;;3.77;2.50;;;;;;;;;;5054884;28;20676;-67
2023/04/04 11:39:29;;;;;;;3.37;2.60;;;;;;;;;;5052196;28;20191;-68
2023/04/04 11:41:57;;;;;;;6.10;2.70;;;;;;;;;;5055726;28;20205;-66
2023/04/04 11:44:24;;;;;;;4.10;2.87;;;;;;;;;;5054940;28;20208;-68
2023/04/04 11:46:56;;;;;;;4.90;1.97;;;;;;;;;;5054337;28;20189;-68
2023/04/04 11:49:31;;;;;;;4.00;2.80;;;;;;;;;;5054680;28;20220;-68
2023/04/04 11:51:57;;;;;;;4.00;2.67;;;;;;;;;;5053722;28;20606;-69
2023/04/04 11:54:23;;;;;;;4.20;2.60;;;;;;;;;;5054196;28;20179;-68
2023/04/04 11:56:50;;;;;;;3.37;1.87;;;;;;;;;;5055523;28;20170;-68
2023/04/04 11:59:20;;;;;;;5.20;2.60;;;;;;;;;;5061884;28;20178;-66
2023/04/04 12:01:46;;;;;;;8.33;2.80;;;;;;;;;;5065805;28;20199;-68
2023/04/04 12:04:14;;;;;;;3.53;2.90;;;;;;;;;;5062710;28;20186;-67
2023/04/04 12:06:41;;;;;;;5.20;2.57;;;;;;;;;;5058260;28;20190;-68
2023/04/04 12:09:11;;;;;;;5.10;2.37;;;;;;;;;;5053111;28;20171;-69
2023/04/04 12:11:37;;;;;;;3.57;2.27;;;;;;;;;;5052928;28;20331;-69
2023/04/04 12:14:03;;;;;;;12.23;2.87;;;;;;;;;;5053642;28;20718;-67
2023/04/04 12:16:29;;;;;;;4.67;2.57;;;;;;;;;;5054452;28;20175;-68
2023/04/04 12:19:01;;;;;;;3.73;2.37;;;;;;;;;;5057443;28;20178;-69
2023/04/04 12:21:27;;;;;;;5.77;2.90;;;;;;;;;;5058410;28;20221;-66
2023/04/04 12:23:53;;;;;;;4.47;2.83;;;;;;;;;;5058164;28;20179;-67
2023/04/04 12:26:19;;;;;;;4.87;2.80;;;;;;;;;;5057528;28;20550;-68
2023/04/04 12:28:45;;;;;;;5.23;2.30;;;;;;;;;;5056241;28;20185;-70
2023/04/04 12:31:12;;;;;;;6.03;3.40;;;;;;;;;;5056430;28;20585;-66
2023/04/04 12:33:40;;;;;;;8.43;4.00;;;;;;;;;;5056877;28;20545;-69
2023/04/04 12:36:06;;;;;;;3.87;2.87;;;;;;;;;;5056431;28;20190;-68
2023/04/04 12:38:32;;;;;;;8.43;3.13;;;;;;;;;;5057749;28;20179;-66
2023/04/04 12:40:58;;;;;;;5.33;2.87;;;;;;;;;;5057070;28;20182;-68
2023/04/04 12:43:32;;;;;;;4.80;2.20;;;;;;;;;;5056102;28;20198;-68
2023/04/04 12:45:58;;;;;;;4.83;2.50;;;;;;;;;;5057153;28;20167;-68
2023/04/04 12:48:28;;;;;;;5.70;2.60;;;;;;;;;;5056353;28;20261;-69
2023/04/04 12:50:58;;;;;;;4.70;3.03;;;;;;;;;;5056123;28;20207;-68
2023/04/04 12:53:25;;;;;;;2.77;2.30;;;;;;;;;;5055605;28;20573;-68
2023/04/04 12:55:52;;;;;;;5.10;3.13;;;;;;;;;;5056132;28;20170;-69
2023/04/04 12:58:20;;;;;;;5.00;2.67;;;;;;;;;;5056328;28;20185;-69
2023/04/04 13:00:46;;;;;;;5.20;3.10;;;;;;;;;;5056277;28;20179;-68
2023/04/04 13:03:15;;;;;;;6.63;2.97;;;;;;;;;;5055663;28;20244;-67
2023/04/04 13:05:46;;;;;;;3.43;2.83;;;;;;;;;;5055679;28;20178;-69
2023/04/04 13:08:12;;;;;;;5.60;2.90;;;;;;;;;;5055989;28;20260;-67
2023/04/04 13:10:57;;;;;;;3.87;2.60;;;;;;;;;;5055964;28;20246;-68
2023/04/04 13:13:33;;;;;;;5.47;2.67;;;;;;;;;;5055536;28;20206;-68
2023/04/04 13:15:59;;;;;;;4.83;2.70;;;;;;;;;;5055801;28;20175;-67
2023/04/04 13:18:26;;;;;;;6.80;2.90;;;;;;;;;;5054297;28;20182;-66
2023/04/04 13:20:52;;;;;;;6.00;2.70;;;;;;;;;;5056625;28;20326;-68
2023/04/04 13:23:18;;;;;;;6.00;2.77;;;;;;;;;;5056760;28;20198;-68
2023/04/04 13:25:45;;;;;;;3.27;2.40;;;;;;;;;;5056358;28;20743;-68
2023/04/04 13:28:11;;;;;;;4.67;3.00;;;;;;;;;;5056231;28;20208;-67
2023/04/04 13:30:42;;;;;;;3.27;2.47;;;;;;;;;;5055562;28;20225;-68
2023/04/04 13:33:08;;;;;;;2.43;2.00;;;;;;;;;;5055993;28;20572;-67
2023/04/04 13:35:34;;;;;;;6.07;3.07;;;;;;;;;;5058035;28;20274;-68
2023/04/04 13:38:00;;;;;;;7.20;3.13;;;;;;;;;;5057182;28;20209;-69
2023/04/04 13:40:26;;;;;;;5.63;3.10;;;;;;;;;;5057689;28;20178;-68
2023/04/04 13:42:52;;;;;;;4.43;2.90;;;;;;;;;;5057313;28;20254;-67
2023/04/04 13:45:19;;;;;;;4.73;3.17;;;;;;;;;;5056299;28;20179;-70
2023/04/04 13:47:45;;;;;;;8.07;2.80;;;;;;;;;;5056834;28;20187;-69
2023/04/04 13:50:11;;;;;;;5.43;2.90;;;;;;;;;;5057247;28;20206;-69
2023/04/04 13:52:37;;;;;;;4.00;2.80;;;;;;;;;;5055492;28;20205;-66
2023/04/04 13:55:05;;;;;;;5.47;2.70;;;;;;;;;;5055119;28;20212;-66
2023/04/04 13:57:31;;;;;;;4.37;2.93;;;;;;;;;;5055299;28;20187;-69
2023/04/04 13:59:57;;;;;;;5.23;3.07;;;;;;;;;;5054861;28;20596;-68
2023/04/04 14:02:23;;;;;;;6.80;3.10;;;;;;;;;;5054705;28;20695;-69
2023/04/04 14:04:49;;;;;;;4.10;2.60;;;;;;;;;;5054507;28;20225;-68
2023/04/04 14:07:15;;;;;;;6.73;2.70;;;;;;;;;;5054775;28;20716;-68
2023/04/04 14:09:41;;;;;;;5.17;3.13;;;;;;;;;;5054994;28;20198;-69
2023/04/04 14:12:07;;;;;;;5.23;2.63;;;;;;;;;;5054309;28;20246;-68
2023/04/04 14:14:33;;;;;;;6.30;3.20;;;;;;;;;;5054624;28;20178;-66
2023/04/04 14:16:59;;;;;;;6.73;3.73;;;;;;;;;;5054495;28;20179;-66
2023/04/04 14:19:25;;;;;;;5.77;3.17;;;;;;;;;;5054770;28;20232;-66
2023/04/04 14:21:51;;;;;;;5.27;3.00;;;;;;;;;;5054453;28;20198;-66
2023/04/04 14:24:17;;;;;;;4.53;2.80;;;;;;;;;;5054740;28;20178;-66
2023/04/04 14:26:43;;;;;;;3.23;2.93;;;;;;;;;;5054363;28;20251;-66
2023/04/04 14:29:09;;;;;;;4.40;3.27;;;;;;;;;;5054421;28;20265;-65
2023/04/04 14:31:35;;;;;;;4.30;2.90;;;;;;;;;;5054530;28;20221;-67
2023/04/04 14:34:02;;;;;;;5.63;3.20;;;;;;;;;;5055088;28;20611;-66
2023/04/04 14:36:28;;;;;;;6.10;3.23;;;;;;;;;;5054462;28;20293;-68